DOF/200410 0522Z

 METAR AND TAF INFORMATION
METAR FOR LFLL
ADDS - METARS form results

(0522 UTC 10 April 2020)
Data provider http://aviationweather.gov/metar/data/
 
METAR text: LFLL 100500Z AUTO 13007KT CAVOK 10/04 Q1022 NOSIG
Conditions at: LFLL (LYON/SATOLAS , FR) observed 0500 UTC 10 April 2020
Temperature: 10.0°C (50°F)
Dewpoint: 4.0°C (39°F) [RH = 66%]
Pressure (altimeter): 30.18 inches Hg (1022.0 mb)
Winds: from the SE (130 degrees) at 8 MPH (7 knots; 3.6 m/s)
Visibility: 6 or more miles (10+ km)
Ceiling: ceiling and visibility are OK
Clouds: unknown
Weather: no significant weather observed at this time

METAR text: LFLL 100430Z AUTO 14004KT CAVOK 10/04 Q1022 NOSIG
Conditions at: LFLL (LYON/SATOLAS , FR) observed 0430 UTC 10 April 2020
Temperature: 10.0°C (50°F)
Dewpoint: 4.0°C (39°F) [RH = 66%]
Pressure (altimeter): 30.18 inches Hg (1022.0 mb)
Winds: from the SE (140 degrees) at 5 MPH (4 knots; 2.1 m/s)
Visibility: 6 or more miles (10+ km)
Ceiling: ceiling and visibility are OK
Clouds: unknown
Weather: no significant weather observed at this time

Forecast for: LFLL (LYON/SATOLAS , FR)
Text: TAF LFLL 100500Z 1006/1112 15004KT CAVOK
Forecast period: 0600 UTC 10 April 2020 to 1200 UTC 11 April 2020
Forecast type: FROM: standard forecast or significant change
Winds: from the SSE (150 degrees) at 5 MPH (4 knots; 2.1 m/s)
Visibility: 6 or more miles 10+ km)
Ceiling: unknown
Clouds: missing
Weather: NSW  (no significant weather)

 AIRPORT MAP

 RUNWAY INFORMATION
Runway 18L Runway length 8760 ft Runway width 148 ft
Runway elevation 780 ft Runway displaced threshold 0 ft Runway heading 175
Runway 36R Runway length 8760 ft Runway width 148 ft
Runway elevation 821 ft Runway displaced threshold 0 ft Runway heading 355
Runway 18R Runway length 13124 ft Runway width 148 ft
Runway elevation 758 ft Runway displaced threshold 0 ft Runway heading 175
Runway 36L Runway length 13124 ft Runway width 148 ft
Runway elevation 813 ft Runway displaced threshold 0 ft Runway heading 355

 AIRPORT FREQUENCIES
Type A/D Name Lyon appro Frequency 136.075 MHZ
Type ATIS Name ATIS Frequency 126.175 MHZ
Type GND Name GND Frequency 121.825 MHZ
Type INFO Name INFO Frequency 135.2 MHZ
Type PFLT Name PREFLIGHT Frequency 121.7 MHZ
Type TWR Name TWR Frequency 120.45 MHZ

 AIRPORT NEAR NAVIGATION AIDS
Type VOR-DME Name Lyon/Saint Exupery Frequency 114750 KHZ







No Copyright © 2019 Mickey Virtual Airlines - You can copy whatever you want, but only one can be the original.

Powered by Virtual Airlines Manager